sensor_id;sensor_type;location;lat;lon;timestamp;temperature;humidity
77496;SHT31;66600;48.378;9.948;2023-09-19T00:00:17;15.45;94.18
77496;SHT31;66600;48.378;9.948;2023-09-19T00:00:49;15.48;94.44
77496;SHT31;66600;48.378;9.948;2023-09-19T00:01:20;15.45;94.21
77496;SHT31;66600;48.378;9.948;2023-09-19T00:01:50;15.45;94.18
77496;SHT31;66600;48.378;9.948;2023-09-19T00:02:22;15.41;94.07
77496;SHT31;66600;48.378;9.948;2023-09-19T00:02:57;15.45;94.12
77496;SHT31;66600;48.378;9.948;2023-09-19T00:03:29;15.42;94.07
77496;SHT31;66600;48.378;9.948;2023-09-19T00:04:01;15.44;93.82
77496;SHT31;66600;48.378;9.948;2023-09-19T00:04:32;15.45;93.88
77496;SHT31;66600;48.378;9.948;2023-09-19T00:05:03;15.44;93.80
77496;SHT31;66600;48.378;9.948;2023-09-19T00:05:36;15.45;93.73
77496;SHT31;66600;48.378;9.948;2023-09-19T00:06:08;15.44;93.56
77496;SHT31;66600;48.378;9.948;2023-09-19T00:06:39;15.44;93.63
77496;SHT31;66600;48.378;9.948;2023-09-19T00:07:10;15.39;93.62
77496;SHT31;66600;48.378;9.948;2023-09-19T00:07:40;15.41;93.58
77496;SHT31;66600;48.378;9.948;2023-09-19T00:08:11;15.44;93.59
77496;SHT31;66600;48.378;9.948;2023-09-19T00:08:43;15.39;93.64
77496;SHT31;66600;48.378;9.948;2023-09-19T00:09:14;15.38;93.58
77496;SHT31;66600;48.378;9.948;2023-09-19T00:09:45;15.38;93.56
77496;SHT31;66600;48.378;9.948;2023-09-19T00:10:15;15.41;93.53
77496;SHT31;66600;48.378;9.948;2023-09-19T00:10:47;15.39;93.56
77496;SHT31;66600;48.378;9.948;2023-09-19T00:11:18;15.42;93.58
77496;SHT31;66600;48.378;9.948;2023-09-19T00:11:49;15.39;93.49
77496;SHT31;66600;48.378;9.948;2023-09-19T00:12:20;15.42;93.49
77496;SHT31;66600;48.378;9.948;2023-09-19T00:12:51;15.41;93.34
77496;SHT31;66600;48.378;9.948;2023-09-19T00:13:23;15.42;93.15
77496;SHT31;66600;48.378;9.948;2023-09-19T00:13:55;15.42;93.01
77496;SHT31;66600;48.378;9.948;2023-09-19T00:14:25;15.44;92.72
77496;SHT31;66600;48.378;9.948;2023-09-19T00:14:56;15.44;92.68
77496;SHT31;66600;48.378;9.948;2023-09-19T00:15:27;15.39;92.62
77496;SHT31;66600;48.378;9.948;2023-09-19T00:16:00;15.39;92.50
77496;SHT31;66600;48.378;9.948;2023-09-19T00:16:30;15.38;92.44
77496;SHT31;66600;48.378;9.948;2023-09-19T00:17:03;15.42;92.10
77496;SHT31;66600;48.378;9.948;2023-09-19T00:17:38;15.39;91.40
77496;SHT31;66600;48.378;9.948;2023-09-19T00:18:10;15.38;91.27
77496;SHT31;66600;48.378;9.948;2023-09-19T00:18:41;15.39;90.97
77496;SHT31;66600;48.378;9.948;2023-09-19T00:19:12;15.37;90.37
77496;SHT31;66600;48.378;9.948;2023-09-19T00:19:44;15.44;89.81
77496;SHT31;66600;48.378;9.948;2023-09-19T00:20:16;15.41;89.70
77496;SHT31;66600;48.378;9.948;2023-09-19T00:20:47;15.45;89.52
77496;SHT31;66600;48.378;9.948;2023-09-19T00:21:19;15.48;89.15
77496;SHT31;66600;48.378;9.948;2023-09-19T00:21:50;15.49;88.87
77496;SHT31;66600;48.378;9.948;2023-09-19T00:22:24;15.51;88.78
77496;SHT31;66600;48.378;9.948;2023-09-19T00:22:56;15.49;88.68
77496;SHT31;66600;48.378;9.948;2023-09-19T00:23:29;15.52;88.49
77496;SHT31;66600;48.378;9.948;2023-09-19T00:23:59;15.52;88.53
77496;SHT31;66600;48.378;9.948;2023-09-19T00:24:30;15.52;88.55
77496;SHT31;66600;48.378;9.948;2023-09-19T00:25:03;15.49;88.70
77496;SHT31;66600;48.378;9.948;2023-09-19T00:25:36;15.45;88.82
77496;SHT31;66600;48.378;9.948;2023-09-19T00:26:07;15.39;88.92
77496;SHT31;66600;48.378;9.948;2023-09-19T00:26:37;15.37;89.15
77496;SHT31;66600;48.378;9.948;2023-09-19T00:27:08;15.35;89.27
77496;SHT31;66600;48.378;9.948;2023-09-19T00:27:39;15.32;89.44
77496;SHT31;66600;48.378;9.948;2023-09-19T00:28:13;15.28;89.48
77496;SHT31;66600;48.378;9.948;2023-09-19T00:28:44;15.31;89.51
77496;SHT31;66600;48.378;9.948;2023-09-19T00:29:15;15.28;89.55
77496;SHT31;66600;48.378;9.948;2023-09-19T00:29:46;15.27;89.63
77496;SHT31;66600;48.378;9.948;2023-09-19T00:30:17;15.24;89.67
77496;SHT31;66600;48.378;9.948;2023-09-19T00:30:51;15.21;89.56
77496;SHT31;66600;48.378;9.948;2023-09-19T00:31:24;15.21;89.65
77496;SHT31;66600;48.378;9.948;2023-09-19T00:31:56;15.20;89.77
77496;SHT31;66600;48.378;9.948;2023-09-19T00:32:29;15.18;89.87
77496;SHT31;66600;48.378;9.948;2023-09-19T00:33:02;15.20;89.73
77496;SHT31;66600;48.378;9.948;2023-09-19T00:33:39;15.23;89.64
77496;SHT31;66600;48.378;9.948;2023-09-19T00:34:10;15.27;89.39
77496;SHT31;66600;48.378;9.948;2023-09-19T00:34:43;15.25;89.56
77496;SHT31;66600;48.378;9.948;2023-09-19T00:35:14;15.21;89.66
77496;SHT31;66600;48.378;9.948;2023-09-19T00:35:53;15.20;89.83
77496;SHT31;66600;48.378;9.948;2023-09-19T00:36:24;15.18;90.03
77496;SHT31;66600;48.378;9.948;2023-09-19T00:36:55;15.18;90.11
77496;SHT31;66600;48.378;9.948;2023-09-19T00:37:26;15.14;90.15
77496;SHT31;66600;48.378;9.948;2023-09-19T00:37:56;15.12;90.29
77496;SHT31;66600;48.378;9.948;2023-09-19T00:38:27;15.10;90.30
77496;SHT31;66600;48.378;9.948;2023-09-19T00:38:58;15.10;90.38
77496;SHT31;66600;48.378;9.948;2023-09-19T00:39:28;15.04;90.47
77496;SHT31;66600;48.378;9.948;2023-09-19T00:40:03;15.03;90.69
77496;SHT31;66600;48.378;9.948;2023-09-19T00:40:35;15.06;90.72
77496;SHT31;66600;48.378;9.948;2023-09-19T00:41:07;15.01;90.80
77496;SHT31;66600;48.378;9.948;2023-09-19T00:41:38;15.00;90.92
77496;SHT31;66600;48.378;9.948;2023-09-19T00:42:19;15.00;91.01
77496;SHT31;66600;48.378;9.948;2023-09-19T00:42:51;15.00;91.07
77496;SHT31;66600;48.378;9.948;2023-09-19T00:43:22;15.01;91.20
77496;SHT31;66600;48.378;9.948;2023-09-19T00:43:54;15.03;91.16
77496;SHT31;66600;48.378;9.948;2023-09-19T00:44:28;15.03;91.41
77496;SHT31;66600;48.378;9.948;2023-09-19T00:44:58;15.04;91.46
77496;SHT31;66600;48.378;9.948;2023-09-19T00:45:30;15.03;91.60
77496;SHT31;66600;48.378;9.948;2023-09-19T00:46:00;15.00;91.82
77496;SHT31;66600;48.378;9.948;2023-09-19T00:46:33;14.99;92.00
77496;SHT31;66600;48.378;9.948;2023-09-19T00:47:04;14.99;92.10
77496;SHT31;66600;48.378;9.948;2023-09-19T00:47:35;14.96;92.17
77496;SHT31;66600;48.378;9.948;2023-09-19T00:48:06;15.00;92.21
77496;SHT31;66600;48.378;9.948;2023-09-19T00:48:41;15.01;92.25
77496;SHT31;66600;48.378;9.948;2023-09-19T00:49:14;14.99;92.28
77496;SHT31;66600;48.378;9.948;2023-09-19T00:49:45;14.96;92.42
77496;SHT31;66600;48.378;9.948;2023-09-19T00:50:24;14.94;92.44
77496;SHT31;66600;48.378;9.948;2023-09-19T00:50:57;14.94;92.61
77496;SHT31;66600;48.378;9.948;2023-09-19T00:51:30;14.93;92.60
77496;SHT31;66600;48.378;9.948;2023-09-19T00:52:01;14.93;92.62
77496;SHT31;66600;48.378;9.948;2023-09-19T00:52:31;14.93;92.63
77496;SHT31;66600;48.378;9.948;2023-09-19T00:53:02;14.94;92.71
77496;SHT31;66600;48.378;9.948;2023-09-19T00:53:38;14.93;92.93
77496;SHT31;66600;48.378;9.948;2023-09-19T00:54:09;14.89;93.15
77496;SHT31;66600;48.378;9.948;2023-09-19T00:54:40;14.87;93.21
77496;SHT31;66600;48.378;9.948;2023-09-19T00:55:11;14.87;93.19
77496;SHT31;66600;48.378;9.948;2023-09-19T00:55:45;14.86;93.40
77496;SHT31;66600;48.378;9.948;2023-09-19T00:56:16;14.86;93.64
77496;SHT31;66600;48.378;9.948;2023-09-19T00:56:51;14.87;93.72
77496;SHT31;66600;48.378;9.948;2023-09-19T00:57:25;14.86;93.71
77496;SHT31;66600;48.378;9.948;2023-09-19T00:57:56;14.86;93.71
77496;SHT31;66600;48.378;9.948;2023-09-19T00:58:27;14.89;93.73
77496;SHT31;66600;48.378;9.948;2023-09-19T00:59:02;14.86;93.80
77496;SHT31;66600;48.378;9.948;2023-09-19T00:59:34;14.90;93.85
77496;SHT31;66600;48.378;9.948;2023-09-19T01:00:07;14.89;93.88
77496;SHT31;66600;48.378;9.948;2023-09-19T01:00:41;14.91;93.88
77496;SHT31;66600;48.378;9.948;2023-09-19T01:01:15;14.94;93.98
77496;SHT31;66600;48.378;9.948;2023-09-19T01:01:45;14.93;94.16
77496;SHT31;66600;48.378;9.948;2023-09-19T01:02:18;14.93;94.15
77496;SHT31;66600;48.378;9.948;2023-09-19T01:02:49;14.91;94.41
77496;SHT31;66600;48.378;9.948;2023-09-19T01:03:20;14.91;94.36
77496;SHT31;66600;48.378;9.948;2023-09-19T01:03:51;14.89;94.53
77496;SHT31;66600;48.378;9.948;2023-09-19T01:04:22;14.93;94.62
77496;SHT31;66600;48.378;9.948;2023-09-19T01:04:54;14.90;94.74
77496;SHT31;66600;48.378;9.948;2023-09-19T01:05:25;14.90;94.76
77496;SHT31;66600;48.378;9.948;2023-09-19T01:05:56;14.93;94.79
77496;SHT31;66600;48.378;9.948;2023-09-19T01:06:27;14.94;94.78
77496;SHT31;66600;48.378;9.948;2023-09-19T01:06:57;14.93;94.72
77496;SHT31;66600;48.378;9.948;2023-09-19T01:07:30;14.94;94.72
77496;SHT31;66600;48.378;9.948;2023-09-19T01:08:01;14.99;94.75
77496;SHT31;66600;48.378;9.948;2023-09-19T01:08:32;14.97;94.76
77496;SHT31;66600;48.378;9.948;2023-09-19T01:09:06;14.96;94.73
77496;SHT31;66600;48.378;9.948;2023-09-19T01:09:38;14.96;94.82
77496;SHT31;66600;48.378;9.948;2023-09-19T01:10:13;14.97;95.02
77496;SHT31;66600;48.378;9.948;2023-09-19T01:10:55;14.94;95.05
77496;SHT31;66600;48.378;9.948;2023-09-19T01:11:40;14.94;95.14
77496;SHT31;66600;48.378;9.948;2023-09-19T01:12:16;14.91;95.27
77496;SHT31;66600;48.378;9.948;2023-09-19T01:13:54;14.89;95.30
77496;SHT31;66600;48.378;9.948;2023-09-19T01:14:39;14.96;95.27
77496;SHT31;66600;48.378;9.948;2023-09-19T01:15:28;14.94;95.29
77496;SHT31;66600;48.378;9.948;2023-09-19T01:16:32;14.99;95.17
77496;SHT31;66600;48.378;9.948;2023-09-19T01:17:13;15.00;95.12
77496;SHT31;66600;48.378;9.948;2023-09-19T01:17:54;14.97;95.11
77496;SHT31;66600;48.378;9.948;2023-09-19T01:20:09;14.99;95.01
77496;SHT31;66600;48.378;9.948;2023-09-19T01:23:12;14.89;95.39
77496;SHT31;66600;48.378;9.948;2023-09-19T01:27:06;14.96;95.13
77496;SHT31;66600;48.378;9.948;2023-09-19T01:28:20;14.97;95.14
77496;SHT31;66600;48.378;9.948;2023-09-19T01:28:54;14.96;95.16
77496;SHT31;66600;48.378;9.948;2023-09-19T01:29:38;14.93;95.21
77496;SHT31;66600;48.378;9.948;2023-09-19T01:30:11;14.96;95.17
77496;SHT31;66600;48.378;9.948;2023-09-19T01:30:46;14.97;95.17
77496;SHT31;66600;48.378;9.948;2023-09-19T01:31:18;14.97;95.12
77496;SHT31;66600;48.378;9.948;2023-09-19T01:31:51;14.97;95.16
77496;SHT31;66600;48.378;9.948;2023-09-19T01:32:26;14.94;95.11
77496;SHT31;66600;48.378;9.948;2023-09-19T01:32:59;14.93;95.07
77496;SHT31;66600;48.378;9.948;2023-09-19T01:34:00;14.90;95.17
77496;SHT31;66600;48.378;9.948;2023-09-19T01:34:49;14.93;95.14
77496;SHT31;66600;48.378;9.948;2023-09-19T01:35:20;14.87;95.15
77496;SHT31;66600;48.378;9.948;2023-09-19T01:35:53;14.87;95.22
77496;SHT31;66600;48.378;9.948;2023-09-19T01:36:25;14.90;95.20
77496;SHT31;66600;48.378;9.948;2023-09-19T01:36:56;14.87;95.13
77496;SHT31;66600;48.378;9.948;2023-09-19T01:37:29;14.91;95.03
77496;SHT31;66600;48.378;9.948;2023-09-19T01:38:02;14.89;95.06
77496;SHT31;66600;48.378;9.948;2023-09-19T01:38:33;14.87;95.07
77496;SHT31;66600;48.378;9.948;2023-09-19T01:39:10;14.89;95.00
77496;SHT31;66600;48.378;9.948;2023-09-19T01:39:43;14.90;94.93
77496;SHT31;66600;48.378;9.948;2023-09-19T01:40:16;14.91;94.93
77496;SHT31;66600;48.378;9.948;2023-09-19T01:41:03;14.90;94.78
77496;SHT31;66600;48.378;9.948;2023-09-19T01:41:54;14.91;94.86
77496;SHT31;66600;48.378;9.948;2023-09-19T01:42:41;14.94;94.69
77496;SHT31;66600;48.378;9.948;2023-09-19T01:43:18;14.89;94.67
77496;SHT31;66600;48.378;9.948;2023-09-19T01:43:51;14.93;94.70
77496;SHT31;66600;48.378;9.948;2023-09-19T01:44:57;14.89;94.71
77496;SHT31;66600;48.378;9.948;2023-09-19T01:46:40;14.87;94.73
77496;SHT31;66600;48.378;9.948;2023-09-19T01:47:19;14.89;94.80
77496;SHT31;66600;48.378;9.948;2023-09-19T01:47:55;14.86;94.88
77496;SHT31;66600;48.378;9.948;2023-09-19T01:48:46;14.83;94.94
77496;SHT31;66600;48.378;9.948;2023-09-19T01:49:44;14.80;95.24
77496;SHT31;66600;48.378;9.948;2023-09-19T01:50:38;14.76;95.20
77496;SHT31;66600;48.378;9.948;2023-09-19T01:51:14;14.77;95.24
77496;SHT31;66600;48.378;9.948;2023-09-19T01:52:00;14.80;95.36
77496;SHT31;66600;48.378;9.948;2023-09-19T01:52:38;14.75;95.34
77496;SHT31;66600;48.378;9.948;2023-09-19T01:53:27;14.79;95.42
77496;SHT31;66600;48.378;9.948;2023-09-19T01:54:02;14.80;95.26
77496;SHT31;66600;48.378;9.948;2023-09-19T01:54:48;14.86;95.11
77496;SHT31;66600;48.378;9.948;2023-09-19T01:55:21;14.84;95.11
77496;SHT31;66600;48.378;9.948;2023-09-19T01:55:53;14.81;95.08
77496;SHT31;66600;48.378;9.948;2023-09-19T01:56:31;14.81;95.19
77496;SHT31;66600;48.378;9.948;2023-09-19T01:57:22;14.80;95.29
77496;SHT31;66600;48.378;9.948;2023-09-19T01:58:08;14.77;95.31
77496;SHT31;66600;48.378;9.948;2023-09-19T01:58:49;14.79;95.37
77496;SHT31;66600;48.378;9.948;2023-09-19T01:59:24;14.81;95.34
77496;SHT31;66600;48.378;9.948;2023-09-19T02:00:03;14.83;95.20
77496;SHT31;66600;48.378;9.948;2023-09-19T02:00:37;14.83;95.08
77496;SHT31;66600;48.378;9.948;2023-09-19T02:01:16;14.86;95.07
77496;SHT31;66600;48.378;9.948;2023-09-19T02:01:49;14.86;95.08
77496;SHT31;66600;48.378;9.948;2023-09-19T02:02:22;14.86;95.06
77496;SHT31;66600;48.378;9.948;2023-09-19T02:02:56;14.89;94.94
77496;SHT31;66600;48.378;9.948;2023-09-19T02:03:29;14.94;94.89
77496;SHT31;66600;48.378;9.948;2023-09-19T02:04:00;14.93;94.81
77496;SHT31;66600;48.378;9.948;2023-09-19T02:04:34;14.97;94.79
77496;SHT31;66600;48.378;9.948;2023-09-19T02:05:05;14.94;94.68
77496;SHT31;66600;48.378;9.948;2023-09-19T02:05:37;14.90;94.75
77496;SHT31;66600;48.378;9.948;2023-09-19T02:06:16;14.89;94.81
77496;SHT31;66600;48.378;9.948;2023-09-19T02:06:48;14.89;94.83
77496;SHT31;66600;48.378;9.948;2023-09-19T02:07:20;14.86;94.90
77496;SHT31;66600;48.378;9.948;2023-09-19T02:07:54;14.89;94.96
77496;SHT31;66600;48.378;9.948;2023-09-19T02:08:27;14.90;94.97
77496;SHT31;66600;48.378;9.948;2023-09-19T02:08:59;14.87;95.01
77496;SHT31;66600;48.378;9.948;2023-09-19T02:09:31;14.90;94.97
77496;SHT31;66600;48.378;9.948;2023-09-19T02:10:02;14.89;94.97
77496;SHT31;66600;48.378;9.948;2023-09-19T02:10:36;14.90;94.95
77496;SHT31;66600;48.378;9.948;2023-09-19T02:11:07;14.90;94.92
77496;SHT31;66600;48.378;9.948;2023-09-19T02:11:38;14.89;94.97
77496;SHT31;66600;48.378;9.948;2023-09-19T02:12:12;14.93;95.03
77496;SHT31;66600;48.378;9.948;2023-09-19T02:12:44;14.93;94.96
77496;SHT31;66600;48.378;9.948;2023-09-19T02:13:20;14.91;94.92
77496;SHT31;66600;48.378;9.948;2023-09-19T02:13:51;14.94;94.87
77496;SHT31;66600;48.378;9.948;2023-09-19T02:14:24;14.94;94.86
77496;SHT31;66600;48.378;9.948;2023-09-19T02:14:59;14.96;94.78
77496;SHT31;66600;48.378;9.948;2023-09-19T02:15:34;14.96;94.76
77496;SHT31;66600;48.378;9.948;2023-09-19T02:16:05;14.94;94.79
77496;SHT31;66600;48.378;9.948;2023-09-19T02:16:37;14.91;94.86
77496;SHT31;66600;48.378;9.948;2023-09-19T02:17:09;14.91;95.01
77496;SHT31;66600;48.378;9.948;2023-09-19T02:17:43;14.89;95.05
77496;SHT31;66600;48.378;9.948;2023-09-19T02:18:15;14.90;95.05
77496;SHT31;66600;48.378;9.948;2023-09-19T02:18:48;14.89;95.00
77496;SHT31;66600;48.378;9.948;2023-09-19T02:19:20;14.90;95.05
77496;SHT31;66600;48.378;9.948;2023-09-19T02:19:54;14.93;94.98
77496;SHT31;66600;48.378;9.948;2023-09-19T02:20:25;14.91;94.97
77496;SHT31;66600;48.378;9.948;2023-09-19T02:20:57;14.94;95.00
77496;SHT31;66600;48.378;9.948;2023-09-19T02:21:29;14.94;95.04
77496;SHT31;66600;48.378;9.948;2023-09-19T02:22:02;14.94;95.02
77496;SHT31;66600;48.378;9.948;2023-09-19T02:22:37;14.90;95.01
77496;SHT31;66600;48.378;9.948;2023-09-19T02:23:10;14.94;95.05
77496;SHT31;66600;48.378;9.948;2023-09-19T02:23:41;14.93;95.05
77496;SHT31;66600;48.378;9.948;2023-09-19T02:24:11;14.96;95.00
77496;SHT31;66600;48.378;9.948;2023-09-19T02:24:43;14.96;94.99
77496;SHT31;66600;48.378;9.948;2023-09-19T02:25:14;14.94;94.99
77496;SHT31;66600;48.378;9.948;2023-09-19T02:25:52;14.94;94.97
77496;SHT31;66600;48.378;9.948;2023-09-19T02:26:23;14.93;94.99
77496;SHT31;66600;48.378;9.948;2023-09-19T02:26:54;14.97;94.98
77496;SHT31;66600;48.378;9.948;2023-09-19T02:27:28;14.93;94.95
77496;SHT31;66600;48.378;9.948;2023-09-19T02:28:01;14.91;95.04
77496;SHT31;66600;48.378;9.948;2023-09-19T02:28:34;14.94;95.04
77496;SHT31;66600;48.378;9.948;2023-09-19T02:29:06;14.93;94.99
77496;SHT31;66600;48.378;9.948;2023-09-19T02:29:39;14.94;95.10
77496;SHT31;66600;48.378;9.948;2023-09-19T02:30:12;14.96;95.06
77496;SHT31;66600;48.378;9.948;2023-09-19T02:30:43;14.96;95.07
77496;SHT31;66600;48.378;9.948;2023-09-19T02:31:13;14.96;95.06
77496;SHT31;66600;48.378;9.948;2023-09-19T02:31:46;15.01;94.96
77496;SHT31;66600;48.378;9.948;2023-09-19T02:32:17;15.03;94.76
77496;SHT31;66600;48.378;9.948;2023-09-19T02:32:48;15.07;94.72
77496;SHT31;66600;48.378;9.948;2023-09-19T02:33:20;15.03;94.63
77496;SHT31;66600;48.378;9.948;2023-09-19T02:33:50;15.07;94.58
77496;SHT31;66600;48.378;9.948;2023-09-19T02:34:22;15.04;94.63
77496;SHT31;66600;48.378;9.948;2023-09-19T02:34:53;15.06;94.58
77496;SHT31;66600;48.378;9.948;2023-09-19T02:35:24;15.08;94.54
77496;SHT31;66600;48.378;9.948;2023-09-19T02:35:56;15.06;94.47
77496;SHT31;66600;48.378;9.948;2023-09-19T02:36:31;15.06;94.50
77496;SHT31;66600;48.378;9.948;2023-09-19T02:37:05;15.06;94.47
77496;SHT31;66600;48.378;9.948;2023-09-19T02:37:36;15.06;94.56
77496;SHT31;66600;48.378;9.948;2023-09-19T02:38:07;15.07;94.52
77496;SHT31;66600;48.378;9.948;2023-09-19T02:38:38;15.07;94.46
77496;SHT31;66600;48.378;9.948;2023-09-19T02:39:09;15.08;94.46
77496;SHT31;66600;48.378;9.948;2023-09-19T02:39:41;15.08;94.39
77496;SHT31;66600;48.378;9.948;2023-09-19T02:40:13;15.07;94.45
77496;SHT31;66600;48.378;9.948;2023-09-19T02:40:50;15.07;94.43
77496;SHT31;66600;48.378;9.948;2023-09-19T02:41:21;15.08;94.34
77496;SHT31;66600;48.378;9.948;2023-09-19T02:41:52;15.04;94.35
77496;SHT31;66600;48.378;9.948;2023-09-19T02:42:24;15.07;94.45
77496;SHT31;66600;48.378;9.948;2023-09-19T02:42:55;15.07;94.50
77496;SHT31;66600;48.378;9.948;2023-09-19T02:43:27;15.06;94.53
77496;SHT31;66600;48.378;9.948;2023-09-19T02:43:58;15.06;94.50
77496;SHT31;66600;48.378;9.948;2023-09-19T02:44:29;15.06;94.45
77496;SHT31;66600;48.378;9.948;2023-09-19T02:45:00;15.10;94.51
77496;SHT31;66600;48.378;9.948;2023-09-19T02:45:31;15.10;94.48
77496;SHT31;66600;48.378;9.948;2023-09-19T02:46:02;15.11;94.45
77496;SHT31;66600;48.378;9.948;2023-09-19T02:46:34;15.12;94.54
77496;SHT31;66600;48.378;9.948;2023-09-19T02:47:06;15.12;94.53
77496;SHT31;66600;48.378;9.948;2023-09-19T02:47:37;15.16;94.40
77496;SHT31;66600;48.378;9.948;2023-09-19T02:48:08;15.17;94.35
77496;SHT31;66600;48.378;9.948;2023-09-19T02:48:39;15.16;94.36
77496;SHT31;66600;48.378;9.948;2023-09-19T02:49:09;15.18;94.28
77496;SHT31;66600;48.378;9.948;2023-09-19T02:49:40;15.17;94.21
77496;SHT31;66600;48.378;9.948;2023-09-19T02:50:15;15.23;94.15
77496;SHT31;66600;48.378;9.948;2023-09-19T02:50:49;15.21;94.02
77496;SHT31;66600;48.378;9.948;2023-09-19T02:51:19;15.21;94.16
77496;SHT31;66600;48.378;9.948;2023-09-19T02:51:50;15.24;94.02
77496;SHT31;66600;48.378;9.948;2023-09-19T02:52:22;15.21;93.92
77496;SHT31;66600;48.378;9.948;2023-09-19T02:52:53;15.20;94.07
77496;SHT31;66600;48.378;9.948;2023-09-19T02:53:24;15.18;94.00
77496;SHT31;66600;48.378;9.948;2023-09-19T02:53:54;15.23;93.87
77496;SHT31;66600;48.378;9.948;2023-09-19T02:54:25;15.24;93.77
77496;SHT31;66600;48.378;9.948;2023-09-19T02:54:55;15.28;93.60
77496;SHT31;66600;48.378;9.948;2023-09-19T02:55:26;15.30;93.51
77496;SHT31;66600;48.378;9.948;2023-09-19T02:55:58;15.28;93.58
77496;SHT31;66600;48.378;9.948;2023-09-19T02:56:29;15.27;93.65
77496;SHT31;66600;48.378;9.948;2023-09-19T02:57:01;15.27;93.60
77496;SHT31;66600;48.378;9.948;2023-09-19T02:57:33;15.27;93.62
77496;SHT31;66600;48.378;9.948;2023-09-19T02:58:05;15.23;93.75
77496;SHT31;66600;48.378;9.948;2023-09-19T02:58:38;15.21;93.79
77496;SHT31;66600;48.378;9.948;2023-09-19T02:59:09;15.20;93.83
77496;SHT31;66600;48.378;9.948;2023-09-19T02:59:40;15.20;94.00
77496;SHT31;66600;48.378;9.948;2023-09-19T03:00:13;15.20;93.99
77496;SHT31;66600;48.378;9.948;2023-09-19T03:00:43;15.21;93.85
77496;SHT31;66600;48.378;9.948;2023-09-19T03:01:18;15.21;93.73
77496;SHT31;66600;48.378;9.948;2023-09-19T03:01:49;15.25;93.69
77496;SHT31;66600;48.378;9.948;2023-09-19T03:02:21;15.27;93.64
77496;SHT31;66600;48.378;9.948;2023-09-19T03:02:55;15.30;93.47
77496;SHT31;66600;48.378;9.948;2023-09-19T03:03:26;15.27;93.48
77496;SHT31;66600;48.378;9.948;2023-09-19T03:04:01;15.27;93.41
77496;SHT31;66600;48.378;9.948;2023-09-19T03:04:33;15.25;93.36
77496;SHT31;66600;48.378;9.948;2023-09-19T03:05:06;15.28;93.39
77496;SHT31;66600;48.378;9.948;2023-09-19T03:05:39;15.30;93.47
77496;SHT31;66600;48.378;9.948;2023-09-19T03:06:10;15.24;93.53
77496;SHT31;66600;48.378;9.948;2023-09-19T03:06:43;15.21;93.64
77496;SHT31;66600;48.378;9.948;2023-09-19T03:07:16;15.21;93.73
77496;SHT31;66600;48.378;9.948;2023-09-19T03:07:48;15.21;93.67
77496;SHT31;66600;48.378;9.948;2023-09-19T03:08:22;15.21;93.67
77496;SHT31;66600;48.378;9.948;2023-09-19T03:08:53;15.20;93.68
77496;SHT31;66600;48.378;9.948;2023-09-19T03:09:26;15.24;93.75
77496;SHT31;66600;48.378;9.948;2023-09-19T03:09:57;15.23;93.70
77496;SHT31;66600;48.378;9.948;2023-09-19T03:10:28;15.23;93.65
77496;SHT31;66600;48.378;9.948;2023-09-19T03:11:05;15.23;93.68
77496;SHT31;66600;48.378;9.948;2023-09-19T03:11:37;15.21;93.78
77496;SHT31;66600;48.378;9.948;2023-09-19T03:12:07;15.25;93.64
77496;SHT31;66600;48.378;9.948;2023-09-19T03:12:38;15.21;93.63
77496;SHT31;66600;48.378;9.948;2023-09-19T03:13:10;15.24;93.63
77496;SHT31;66600;48.378;9.948;2023-09-19T03:13:41;15.28;93.50
77496;SHT31;66600;48.378;9.948;2023-09-19T03:14:13;15.27;93.38
77496;SHT31;66600;48.378;9.948;2023-09-19T03:14:44;15.28;93.28
77496;SHT31;66600;48.378;9.948;2023-09-19T03:15:15;15.31;93.23
77496;SHT31;66600;48.378;9.948;2023-09-19T03:15:46;15.27;93.33
77496;SHT31;66600;48.378;9.948;2023-09-19T03:16:20;15.28;93.37
77496;SHT31;66600;48.378;9.948;2023-09-19T03:16:55;15.24;93.37
77496;SHT31;66600;48.378;9.948;2023-09-19T03:17:26;15.25;93.34
77496;SHT31;66600;48.378;9.948;2023-09-19T03:18:00;15.27;93.37
77496;SHT31;66600;48.378;9.948;2023-09-19T03:18:33;15.24;93.44
77496;SHT31;66600;48.378;9.948;2023-09-19T03:19:04;15.21;93.52
77496;SHT31;66600;48.378;9.948;2023-09-19T03:19:36;15.25;93.46
77496;SHT31;66600;48.378;9.948;2023-09-19T03:20:10;15.25;93.38
77496;SHT31;66600;48.378;9.948;2023-09-19T03:20:44;15.21;93.43
77496;SHT31;66600;48.378;9.948;2023-09-19T03:21:23;15.24;93.53
77496;SHT31;66600;48.378;9.948;2023-09-19T03:21:54;15.24;93.39
77496;SHT31;66600;48.378;9.948;2023-09-19T03:22:28;15.24;93.51
77496;SHT31;66600;48.378;9.948;2023-09-19T03:22:59;15.20;93.46
77496;SHT31;66600;48.378;9.948;2023-09-19T03:23:30;15.18;93.61
77496;SHT31;66600;48.378;9.948;2023-09-19T03:24:02;15.21;93.61
77496;SHT31;66600;48.378;9.948;2023-09-19T03:24:33;15.21;93.61
77496;SHT31;66600;48.378;9.948;2023-09-19T03:25:04;15.20;93.58
77496;SHT31;66600;48.378;9.948;2023-09-19T03:25:38;15.18;93.72
77496;SHT31;66600;48.378;9.948;2023-09-19T03:26:09;15.18;93.64
77496;SHT31;66600;48.378;9.948;2023-09-19T03:26:40;15.17;93.58
77496;SHT31;66600;48.378;9.948;2023-09-19T03:27:12;15.16;93.71
77496;SHT31;66600;48.378;9.948;2023-09-19T03:27:46;15.16;93.58
77496;SHT31;66600;48.378;9.948;2023-09-19T03:28:17;15.14;93.59
77496;SHT31;66600;48.378;9.948;2023-09-19T03:28:48;15.17;93.68
77496;SHT31;66600;48.378;9.948;2023-09-19T03:29:19;15.14;93.66
77496;SHT31;66600;48.378;9.948;2023-09-19T03:29:50;15.16;93.58
77496;SHT31;66600;48.378;9.948;2023-09-19T03:30:21;15.17;93.60
77496;SHT31;66600;48.378;9.948;2023-09-19T03:31:02;15.18;93.54
77496;SHT31;66600;48.378;9.948;2023-09-19T03:31:33;15.18;93.44
77496;SHT31;66600;48.378;9.948;2023-09-19T03:32:07;15.16;93.43
77496;SHT31;66600;48.378;9.948;2023-09-19T03:32:46;15.10;93.70
77496;SHT31;66600;48.378;9.948;2023-09-19T03:33:19;15.08;93.80
77496;SHT31;66600;48.378;9.948;2023-09-19T03:33:50;15.07;93.73
77496;SHT31;66600;48.378;9.948;2023-09-19T03:34:21;15.04;93.80
77496;SHT31;66600;48.378;9.948;2023-09-19T03:34:52;15.04;93.89
77496;SHT31;66600;48.378;9.948;2023-09-19T03:35:23;15.06;93.95
77496;SHT31;66600;48.378;9.948;2023-09-19T03:35:54;15.01;93.94
77496;SHT31;66600;48.378;9.948;2023-09-19T03:36:25;15.00;94.02
77496;SHT31;66600;48.378;9.948;2023-09-19T03:36:58;15.00;94.04
77496;SHT31;66600;48.378;9.948;2023-09-19T03:37:30;14.99;94.09
77496;SHT31;66600;48.378;9.948;2023-09-19T03:38:01;14.99;94.12
77496;SHT31;66600;48.378;9.948;2023-09-19T03:38:32;14.99;94.05
77496;SHT31;66600;48.378;9.948;2023-09-19T03:39:04;15.01;93.97
77496;SHT31;66600;48.378;9.948;2023-09-19T03:39:35;14.99;94.06
77496;SHT31;66600;48.378;9.948;2023-09-19T03:40:07;14.99;94.15
77496;SHT31;66600;48.378;9.948;2023-09-19T03:40:38;14.99;94.17
77496;SHT31;66600;48.378;9.948;2023-09-19T03:41:09;14.93;94.18